createdAt,value
2023-01-19T00:01:22.815Z,7.30
2023-01-19T00:06:26.845Z,9.13
2023-01-19T00:11:29.006Z,9.90
2023-01-19T00:16:31.478Z,9.80
2023-01-19T00:21:35.212Z,7.20
2023-01-19T00:26:40.601Z,8.80
2023-01-19T00:31:42.785Z,7.23
2023-01-19T00:36:46.546Z,5.73
2023-01-19T00:42:05.948Z,7.90
2023-01-19T00:47:08.236Z,6.77
2023-01-19T00:52:12.448Z,6.97
2023-01-19T00:57:14.648Z,5.93
2023-01-19T01:02:16.902Z,8.70
2023-01-19T01:07:20.630Z,6.93
2023-01-19T01:12:22.661Z,5.40
2023-01-19T01:17:28.630Z,5.93
2023-01-19T01:22:32.293Z,8.00
2023-01-19T01:27:34.277Z,7.37
2023-01-19T01:32:36.478Z,6.80
2023-01-19T01:37:40.073Z,5.27
2023-01-19T01:42:42.714Z,8.50
2023-01-19T01:47:48.186Z,4.97
2023-01-19T01:53:06.104Z,4.90
2023-01-19T01:58:12.540Z,5.27
2023-01-19T02:03:14.727Z,7.73
2023-01-19T02:08:39.322Z,8.57
2023-01-19T02:13:45.341Z,6.33
2023-01-19T02:18:47.558Z,7.33
2023-01-19T02:23:52.816Z,6.97
2023-01-19T02:28:59.488Z,5.77
2023-01-19T02:34:03.893Z,6.33
2023-01-19T02:39:09.726Z,6.07
2023-01-19T02:44:14.249Z,9.00
2023-01-19T02:49:16.745Z,9.77
2023-01-19T02:54:42.664Z,10.00
2023-01-19T02:59:55.289Z,11.33
2023-01-19T03:05:08.463Z,8.17
2023-01-19T03:10:18.920Z,10.13
2023-01-19T03:15:24.753Z,8.60
2023-01-19T03:20:29.108Z,7.70
2023-01-19T03:25:37.106Z,10.10
2023-01-19T03:30:46.125Z,7.83
2023-01-19T03:35:52.086Z,6.77
2023-01-19T03:41:00.339Z,9.40
2023-01-19T03:46:04.421Z,8.87
2023-01-19T03:51:08.977Z,8.83
2023-01-19T03:56:19.709Z,6.83
2023-01-19T04:01:23.092Z,8.37
2023-01-19T04:06:25.365Z,8.30
2023-01-19T04:11:28.665Z,10.03
2023-01-19T04:16:30.752Z,10.43
2023-01-19T04:21:33.356Z,10.63
2023-01-19T04:26:41.166Z,11.03
2023-01-19T04:31:43.147Z,13.90
2023-01-19T04:36:45.686Z,15.97
2023-01-19T04:41:49.221Z,12.70
2023-01-19T04:46:51.740Z,13.13
2023-01-19T04:51:54.923Z,14.13
2023-01-19T04:56:58.966Z,14.03
2023-01-19T05:02:01.307Z,14.07
2023-01-19T05:07:03.668Z,11.77
2023-01-19T05:12:07.806Z,11.03
2023-01-19T05:17:09.927Z,14.20
2023-01-19T05:22:12.364Z,11.93
2023-01-19T05:27:16.221Z,12.40
2023-01-19T05:32:18.825Z,13.40
2023-01-19T05:37:20.751Z,13.70
2023-01-19T05:42:24.309Z,15.83
2023-01-19T05:47:26.647Z,17.03
2023-01-19T05:52:28.847Z,15.43
2023-01-19T05:57:33.341Z,18.33
2023-01-19T06:02:35.940Z,23.03
2023-01-19T06:07:38.014Z,14.90
2023-01-19T06:12:42.746Z,14.50
2023-01-19T06:17:45.160Z,19.80
2023-01-19T06:22:48.178Z,14.00
2023-01-19T06:27:51.811Z,15.50
2023-01-19T06:32:55.309Z,15.57
2023-01-19T06:37:57.766Z,15.43
2023-01-19T06:43:01.423Z,16.77
2023-01-19T06:48:04.444Z,17.37
2023-01-19T06:53:06.630Z,20.43
2023-01-19T06:58:10.682Z,17.73
2023-01-19T07:03:20.554Z,15.20
2023-01-19T07:08:22.890Z,17.03
2023-01-19T07:13:26.423Z,16.20
2023-01-19T07:18:28.346Z,17.90
2023-01-19T07:23:30.972Z,18.17
2023-01-19T07:28:34.835Z,15.43
2023-01-19T07:33:36.727Z,19.30
2023-01-19T07:38:38.717Z,15.53
2023-01-19T07:43:42.589Z,21.00
2023-01-19T07:48:44.872Z,17.40
2023-01-19T07:53:47.746Z,16.83
2023-01-19T07:58:52.664Z,20.83
2023-01-19T08:03:55.218Z,30.20
2023-01-19T08:08:57.370Z,17.40
2023-01-19T08:14:01.576Z,18.17
2023-01-19T08:19:03.958Z,19.53
2023-01-19T08:24:06.935Z,23.50
2023-01-19T08:29:10.853Z,32.83
2023-01-19T08:34:13.140Z,65.90
2023-01-19T08:39:15.921Z,43.20
2023-01-19T08:44:19.820Z,29.67
2023-01-19T08:49:21.979Z,31.13
2023-01-19T08:54:24.400Z,23.87
2023-01-19T08:59:28.144Z,18.80
2023-01-19T09:04:30.134Z,21.27
2023-01-19T09:09:32.046Z,22.17
2023-01-19T09:14:35.367Z,19.27
2023-01-19T09:19:37.307Z,18.27
2023-01-19T09:24:40.044Z,19.43
2023-01-19T09:29:44.130Z,19.60
2023-01-19T09:34:46.291Z,16.40
2023-01-19T09:39:48.989Z,20.00
2023-01-19T09:44:54.639Z,15.23
2023-01-19T09:50:02.964Z,13.67
2023-01-19T09:55:05.409Z,15.50
2023-01-19T10:00:16.674Z,18.60
2023-01-19T10:05:30.142Z,16.57
2023-01-19T10:10:33.824Z,14.60
2023-01-19T10:15:53.738Z,13.47
2023-01-19T10:21:04.623Z,16.37
2023-01-19T10:26:13.399Z,11.97
2023-01-19T10:31:20.167Z,15.87
2023-01-19T10:36:27.010Z,17.93
2023-01-19T10:41:38.629Z,13.27
2023-01-19T10:46:45.791Z,10.80
2023-01-19T10:51:49.922Z,10.43
2023-01-19T10:56:55.412Z,10.90
2023-01-19T11:02:18.281Z,11.63
2023-01-19T11:07:23.914Z,10.67
2023-01-19T11:12:26.273Z,11.43
2023-01-19T11:17:30.430Z,13.03
2023-01-19T11:22:34.727Z,13.53
2023-01-19T11:27:38.521Z,9.80
2023-01-19T11:32:43.180Z,11.60
2023-01-19T11:37:45.633Z,12.03
2023-01-19T11:42:47.889Z,12.23
2023-01-19T11:47:52.735Z,11.93
2023-01-19T11:53:00.469Z,12.23
2023-01-19T11:58:05.846Z,11.17
2023-01-19T12:03:18.877Z,18.27
2023-01-19T12:08:24.923Z,11.27
2023-01-19T12:13:28.956Z,13.57
2023-01-19T12:18:37.567Z,12.13
2023-01-19T12:23:49.623Z,15.33
2023-01-19T12:28:53.759Z,14.60
2023-01-19T12:34:17.655Z,12.37
2023-01-19T12:39:21.327Z,11.37
2023-01-19T12:44:34.383Z,14.07
2023-01-19T12:49:44.085Z,14.20
2023-01-19T12:54:56.251Z,11.57
2023-01-19T13:00:00.301Z,11.87
2023-01-19T13:05:18.975Z,12.37
2023-01-19T13:10:56.841Z,12.00
2023-01-19T13:16:22.596Z,12.93
2023-01-19T13:21:31.770Z,11.97
2023-01-19T13:26:37.217Z,19.80
2023-01-19T13:31:41.786Z,11.93
2023-01-19T13:36:47.371Z,12.60
2023-01-19T13:41:50.417Z,12.17
2023-01-19T13:46:54.095Z,11.50
2023-01-19T13:52:17.392Z,11.30
2023-01-19T13:57:27.955Z,10.43
2023-01-19T14:02:30.382Z,12.60
2023-01-19T14:07:34.051Z,10.37
2023-01-19T14:12:41.621Z,16.50
2023-01-19T14:18:24.265Z,9.87
2023-01-19T14:23:51.571Z,8.13
2023-01-19T14:28:54.115Z,13.57
2023-01-19T14:33:58.765Z,9.20
2023-01-19T14:39:03.957Z,11.13
2023-01-19T14:44:10.533Z,12.67
2023-01-19T14:49:21.888Z,10.17
2023-01-19T14:54:32.359Z,14.00
2023-01-19T14:59:34.668Z,14.40
2023-01-19T15:04:37.010Z,10.47
2023-01-19T15:09:40.888Z,9.97
2023-01-19T15:14:43.175Z,9.53
2023-01-19T15:19:45.703Z,9.60
2023-01-19T15:24:49.848Z,9.40
2023-01-19T15:29:51.775Z,9.10
2023-01-19T15:34:57.046Z,9.13
2023-01-19T15:40:16.794Z,11.37
2023-01-19T15:45:33.789Z,11.27
2023-01-19T15:50:39.123Z,10.60
2023-01-19T15:55:42.757Z,11.23
2023-01-19T16:00:44.803Z,13.07
2023-01-19T16:05:47.935Z,14.67
2023-01-19T16:10:51.419Z,14.60
2023-01-19T16:15:55.862Z,21.87
2023-01-19T16:20:58.084Z,20.03
2023-01-19T16:26:05.173Z,17.87
2023-01-19T16:31:07.461Z,18.20
2023-01-19T16:36:24.246Z,18.47
2023-01-19T16:41:28.166Z,21.43
2023-01-19T16:46:33.998Z,25.90
2023-01-19T16:51:36.205Z,16.20
2023-01-19T16:56:40.274Z,34.03
2023-01-19T17:01:43.916Z,30.40
2023-01-19T17:06:47.186Z,18.87
2023-01-19T17:11:51.678Z,27.53
2023-01-19T17:16:56.278Z,42.00
2023-01-19T17:21:59.817Z,32.87
2023-01-19T17:27:03.547Z,39.00
2023-01-19T17:32:06.963Z,30.53
2023-01-19T17:37:09.683Z,35.80
2023-01-19T17:42:14.538Z,34.80
2023-01-19T17:47:17.916Z,33.87
2023-01-19T17:52:22.626Z,12.57
2023-01-19T17:57:29.731Z,13.03
2023-01-19T18:02:33.242Z,24.73
2023-01-19T18:07:38.420Z,19.87
2023-01-19T18:12:44.365Z,18.20
2023-01-19T18:17:46.980Z,20.27
2023-01-19T18:22:52.880Z,20.70
2023-01-19T18:27:58.702Z,17.20
2023-01-19T18:33:02.612Z,18.40
2023-01-19T18:38:07.017Z,23.73
2023-01-19T18:43:14.345Z,24.77
2023-01-19T18:48:18.376Z,35.93
2023-01-19T18:53:22.312Z,34.93
2023-01-19T18:58:30.139Z,29.07
2023-01-19T19:03:34.541Z,25.80
2023-01-19T19:08:40.322Z,29.60
2023-01-19T19:13:47.254Z,19.63
2023-01-19T19:18:50.988Z,17.50
2023-01-19T19:23:55.134Z,12.70
2023-01-19T19:29:05.615Z,10.03
2023-01-19T19:34:14.219Z,13.13
2023-01-19T19:39:19.787Z,13.73
2023-01-19T19:45:03.081Z,15.57
2023-01-19T19:50:22.941Z,16.83
2023-01-19T19:55:26.861Z,17.40
2023-01-19T20:00:32.246Z,14.00
2023-01-19T20:05:38.755Z,22.13
2023-01-19T20:10:44.377Z,16.53
2023-01-19T20:15:49.176Z,16.33
2023-01-19T20:20:52.972Z,18.00
2023-01-19T20:25:56.589Z,18.03
2023-01-19T20:31:11.741Z,18.40
2023-01-19T20:36:18.041Z,19.07
2023-01-19T20:41:22.861Z,21.70
2023-01-19T20:46:29.056Z,23.33
2023-01-19T20:51:35.463Z,18.43
2023-01-19T20:56:41.691Z,17.97
2023-01-19T21:01:49.220Z,22.67
2023-01-19T21:06:54.216Z,23.17
2023-01-19T21:11:57.637Z,22.37
2023-01-19T21:17:02.366Z,22.23
2023-01-19T21:22:05.078Z,14.80
2023-01-19T21:27:08.057Z,10.83
2023-01-19T21:32:12.094Z,12.67
2023-01-19T21:37:14.241Z,11.47
2023-01-19T21:42:16.862Z,17.13
2023-01-19T21:47:21.032Z,13.07
2023-01-19T21:52:23.263Z,18.10
2023-01-19T21:57:25.749Z,13.90
2023-01-19T22:02:38.287Z,14.10
2023-01-19T22:07:41.296Z,14.70
2023-01-19T22:12:44.009Z,11.33
2023-01-19T22:17:47.579Z,16.57
2023-01-19T22:22:50.109Z,11.40
2023-01-19T22:27:52.391Z,11.20
2023-01-19T22:32:56.553Z,12.57
2023-01-19T22:37:59.003Z,13.20
2023-01-19T22:43:01.171Z,15.17
2023-01-19T22:48:04.580Z,14.23
2023-01-19T22:53:07.004Z,18.33
2023-01-19T22:58:09.463Z,11.57
2023-01-19T23:03:15.651Z,10.87
2023-01-19T23:08:17.942Z,11.47
2023-01-19T23:13:19.917Z,11.43
2023-01-19T23:18:23.887Z,10.53
2023-01-19T23:23:26.386Z,13.80
2023-01-19T23:28:28.581Z,11.13
2023-01-19T23:33:32.481Z,10.00
2023-01-19T23:38:35.070Z,10.53
2023-01-19T23:43:36.986Z,10.83
2023-01-19T23:48:41.346Z,17.47
2023-01-19T23:53:43.587Z,21.60
2023-01-19T23:58:46.695Z,23.63
